Marmora, Canada
Current Conditions -  °F | °C
As of 12:00 AM on Tuesday 27 Jan 2015 (Local Time) from CYTR Reporting Station
Light Snow Light Snow  
Wind Chill: -8°   Ceiling: 2500
Heat Index:   Visibility: 7mi
Dew Point: -4°   Wind: 15mph
Humidity: 57%   Direction: 40°NE
Pressure: 30.03"   Gusts: NA
Location:  44.48°N, 77.68°W
Report Text: CYTR 270500Z 04013KT 7SM -SN OVC025 M13/M20 A3003 RMK SC8 SLP175
Loading
Personal Weather Stations






























Interactive Weather Map New forecast layout! Learn more

10-Day Weather Forecast

Advertisements
Track Severe Weather on mobile